Time;durP1;ratioP1;P1;durP2;ratioP2;P2;SDS_P1;SDS_P2;PMS_P1;PMS_P2;Temp;Humidity;BMP_temperature;BMP_pressure;BME280_temperature;BME280_humidity;BME280_pressure;Samples;Min_cycle;Max_cycle;Signal;HPM_P1;HPM_P2
2021/05/25 00:02:13;;;;;;;2.20;0.90;;;10.00;99.90;;;;;;5070084;28;20458;-67
2021/05/25 00:04:39;;;;;;;2.90;1.37;;;9.80;99.90;;;;;;5070310;28;20452;-68
2021/05/25 00:07:06;;;;;;;2.13;1.00;;;9.80;99.90;;;;;;5070453;28;20451;-69
2021/05/25 00:09:33;;;;;;;3.10;1.97;;;9.70;99.90;;;;;;5069450;28;20443;-68
2021/05/25 00:11:59;;;;;;;2.67;0.90;;;9.60;99.90;;;;;;5070190;28;20511;-67
2021/05/25 00:14:27;;;;;;;2.33;1.07;;;9.60;99.90;;;;;;5070190;28;20479;-67
2021/05/25 00:16:54;;;;;;;2.50;1.10;;;9.70;99.90;;;;;;5070247;28;20455;-69
2021/05/25 00:19:21;;;;;;;2.20;0.80;;;9.60;99.90;;;;;;5068220;28;20477;-68
2021/05/25 00:21:48;;;;;;;2.63;0.80;;;9.60;99.90;;;;;;5069795;28;21006;-67
2021/05/25 00:24:15;;;;;;;3.27;1.20;;;9.60;99.90;;;;;;5069789;28;20960;-68
2021/05/25 00:26:42;;;;;;;1.87;1.07;;;9.70;99.90;;;;;;5069783;28;20850;-68
2021/05/25 00:29:09;;;;;;;2.50;1.03;;;9.60;99.90;;;;;;5069636;28;20504;-68
2021/05/25 00:31:35;;;;;;;2.80;0.90;;;9.60;99.90;;;;;;5069601;28;20561;-68
2021/05/25 00:34:01;;;;;;;2.00;1.10;;;9.50;99.90;;;;;;5073297;28;20531;-68
2021/05/25 00:36:28;;;;;;;2.93;1.10;;;9.50;99.90;;;;;;5073103;28;20567;-67
2021/05/25 00:38:54;;;;;;;3.20;1.23;;;9.50;99.90;;;;;;5073427;28;20899;-68
2021/05/25 00:41:22;;;;;;;2.37;1.20;;;9.40;99.90;;;;;;5073195;28;20494;-68
2021/05/25 00:43:48;;;;;;;1.87;0.80;;;9.40;99.90;;;;;;5073276;28;20527;-68
2021/05/25 00:46:15;;;;;;;2.53;1.07;;;9.60;99.90;;;;;;5073171;28;20831;-68
2021/05/25 00:48:41;;;;;;;3.47;1.07;;;9.50;99.90;;;;;;5073010;28;20447;-68
2021/05/25 00:51:08;;;;;;;2.20;1.20;;;9.50;99.90;;;;;;5072503;28;20467;-68
2021/05/25 00:53:34;;;;;;;2.00;0.80;;;9.40;99.90;;;;;;5073112;28;20546;-68
2021/05/25 00:56:01;;;;;;;2.17;1.10;;;9.30;99.90;;;;;;5072937;28;20534;-68
2021/05/25 00:58:28;;;;;;;2.00;0.87;;;9.30;99.90;;;;;;5072931;28;20443;-69
2021/05/25 01:00:55;;;;;;;2.53;0.90;;;9.20;99.90;;;;;;5072408;28;20479;-67
2021/05/25 01:03:23;;;;;;;2.23;1.00;;;9.20;99.90;;;;;;5072670;28;20990;-70
2021/05/25 01:05:50;;;;;;;2.37;1.10;;;9.20;99.90;;;;;;5072949;28;20455;-69
2021/05/25 01:08:16;;;;;;;2.63;1.27;;;9.10;99.90;;;;;;5072590;28;20447;-69
2021/05/25 01:10:47;;;;;;;1.70;1.00;;;9.20;99.90;;;;;;5072476;28;20469;-69
2021/05/25 01:13:17;;;;;;;3.70;1.20;;;9.20;99.90;;;;;;5072845;28;20967;-70
2021/05/25 01:15:45;;;;;;;3.50;1.00;;;9.20;99.90;;;;;;5072529;28;20508;-69
2021/05/25 01:18:11;;;;;;;1.60;0.70;;;9.20;99.90;;;;;;5072186;28;20534;-69
2021/05/25 01:20:39;;;;;;;2.23;0.93;;;9.20;99.90;;;;;;5071881;28;20524;-69
2021/05/25 01:23:10;;;;;;;2.97;0.93;;;9.20;99.90;;;;;;5072416;28;20897;-68
2021/05/25 01:25:37;;;;;;;2.67;0.93;;;9.20;99.90;;;;;;5072661;28;20530;-69
2021/05/25 01:28:06;;;;;;;4.93;1.40;;;9.10;99.90;;;;;;5072120;28;20530;-69
2021/05/25 01:30:35;;;;;;;2.40;1.20;;;9.10;99.90;;;;;;5071955;28;20486;-69
2021/05/25 01:33:03;;;;;;;1.93;1.00;;;9.00;99.90;;;;;;5071850;28;20477;-69
2021/05/25 01:35:31;;;;;;;2.20;1.57;;;8.90;99.90;;;;;;5072350;28;20444;-69
2021/05/25 01:37:59;;;;;;;2.23;1.00;;;8.80;99.90;;;;;;5072432;28;20823;-69
2021/05/25 01:40:27;;;;;;;2.10;1.10;;;8.70;99.90;;;;;;5071828;28;20467;-69
2021/05/25 01:42:54;;;;;;;3.70;1.33;;;8.70;99.90;;;;;;5072197;28;20466;-69
2021/05/25 01:45:23;;;;;;;1.70;1.00;;;8.70;99.90;;;;;;5072304;28;20439;-69
2021/05/25 01:47:50;;;;;;;2.97;1.30;;;8.60;99.90;;;;;;5072192;28;20451;-69
2021/05/25 01:50:18;;;;;;;3.70;1.97;;;8.60;99.90;;;;;;5071848;28;20481;-69
2021/05/25 01:52:58;;;;;;;2.93;1.57;;;8.40;99.90;;;;;;5072271;28;20475;-69
2021/05/25 01:55:28;;;;;;;4.03;1.40;;;8.40;99.90;;;;;;5072030;28;20533;-69
2021/05/25 01:57:55;;;;;;;2.50;1.20;;;8.40;99.90;;;;;;5071795;28;20537;-69
2021/05/25 02:00:22;;;;;;;3.20;1.37;;;8.30;99.90;;;;;;5071458;28;20833;-69
2021/05/25 02:02:48;;;;;;;3.00;1.13;;;8.30;99.90;;;;;;5072011;28;20443;-69
2021/05/25 02:05:14;;;;;;;2.53;1.33;;;8.30;99.90;;;;;;5071872;28;20542;-69
2021/05/25 02:07:45;;;;;;;3.70;1.27;;;8.40;99.90;;;;;;5072105;28;20830;-69
2021/05/25 02:10:29;;;;;;;2.50;1.10;;;8.60;99.90;;;;;;5071612;28;20463;-69
2021/05/25 02:12:57;;;;;;;3.40;1.47;;;8.70;99.90;;;;;;5071671;28;21129;-69
2021/05/25 02:15:23;;;;;;;3.00;1.07;;;8.90;99.90;;;;;;5071513;28;20454;-69
2021/05/25 02:17:50;;;;;;;4.40;1.20;;;9.00;99.90;;;;;;5071441;28;20439;-69
2021/05/25 02:20:16;;;;;;;5.37;1.60;;;9.10;99.90;;;;;;5070947;28;20466;-69
2021/05/25 02:22:43;;;;;;;3.47;1.10;;;9.10;99.90;;;;;;5071464;28;20542;-69
2021/05/25 02:25:12;;;;;;;1.90;1.10;;;9.20;99.90;;;;;;5071504;28;20472;-68
2021/05/25 02:27:39;;;;;;;3.03;1.10;;;9.20;99.90;;;;;;5071759;28;20530;-69
2021/05/25 02:30:07;;;;;;;2.57;1.13;;;9.30;99.90;;;;;;5071338;28;20467;-70
2021/05/25 02:32:33;;;;;;;2.40;0.93;;;9.30;99.90;;;;;;5071317;28;20443;-70
2021/05/25 02:34:59;;;;;;;2.70;1.40;;;9.20;99.90;;;;;;5071288;28;20500;-68
2021/05/25 02:37:26;;;;;;;2.90;1.03;;;9.20;99.90;;;;;;5071528;28;20876;-69
2021/05/25 02:39:52;;;;;;;3.30;1.50;;;9.30;99.90;;;;;;5071963;28;20516;-69
2021/05/25 02:42:18;;;;;;;2.30;1.07;;;9.20;99.90;;;;;;5072201;28;20945;-68
2021/05/25 02:44:45;;;;;;;3.40;1.47;;;9.20;99.90;;;;;;5071735;28;20446;-69
2021/05/25 02:47:12;;;;;;;2.93;1.30;;;9.10;99.90;;;;;;5070638;28;20449;-69
2021/05/25 02:49:38;;;;;;;3.07;1.13;;;9.10;99.90;;;;;;5070209;28;20475;-69
2021/05/25 02:52:05;;;;;;;2.07;1.13;;;9.10;99.90;;;;;;5070265;28;20447;-69
2021/05/25 02:54:32;;;;;;;5.10;1.37;;;9.10;99.90;;;;;;5070020;28;20485;-69
2021/05/25 02:56:58;;;;;;;3.30;1.30;;;9.20;99.90;;;;;;5070318;28;20451;-69
2021/05/25 02:59:24;;;;;;;3.20;1.10;;;9.20;99.90;;;;;;5070303;28;20620;-68
2021/05/25 03:01:51;;;;;;;3.87;1.30;;;9.30;99.90;;;;;;5070548;28;20997;-68
2021/05/25 03:04:18;;;;;;;4.23;1.67;;;9.30;99.90;;;;;;5070386;28;20990;-69
2021/05/25 03:06:44;;;;;;;2.00;1.10;;;9.30;99.90;;;;;;5070136;28;20447;-69
2021/05/25 03:09:11;;;;;;;3.10;1.17;;;9.30;99.90;;;;;;5070334;28;20552;-69
2021/05/25 03:11:37;;;;;;;2.60;1.00;;;9.30;99.90;;;;;;5070567;28;20499;-69
2021/05/25 03:14:03;;;;;;;2.80;1.13;;;9.30;99.90;;;;;;5070468;28;20482;-68
2021/05/25 03:16:30;;;;;;;3.40;1.20;;;9.30;99.90;;;;;;5070767;28;20455;-69
2021/05/25 03:18:57;;;;;;;4.27;1.17;;;9.40;99.90;;;;;;5070319;28;20451;-68
2021/05/25 03:21:23;;;;;;;3.30;1.00;;;9.40;99.90;;;;;;5070153;28;20489;-68
2021/05/25 03:23:50;;;;;;;2.63;0.93;;;9.40;99.90;;;;;;5070562;28;20819;-69
2021/05/25 03:26:17;;;;;;;4.63;1.30;;;9.30;99.90;;;;;;5070444;28;20462;-69
2021/05/25 03:28:43;;;;;;;2.50;1.10;;;9.10;99.90;;;;;;5070451;28;20448;-69
2021/05/25 03:31:09;;;;;;;3.77;1.63;;;9.10;99.90;;;;;;5070306;28;20473;-69
2021/05/25 03:33:36;;;;;;;3.30;1.10;;;8.90;99.90;;;;;;5069978;28;20972;-69
2021/05/25 03:36:03;;;;;;;3.17;1.10;;;8.90;99.90;;;;;;5070063;28;20497;-69
2021/05/25 03:38:30;;;;;;;2.00;0.90;;;8.80;99.90;;;;;;5070114;28;20549;-69
2021/05/25 03:40:56;;;;;;;4.90;1.60;;;8.70;99.90;;;;;;5069977;28;20923;-67
2021/05/25 03:43:22;;;;;;;4.03;1.67;;;8.70;99.90;;;;;;5070443;28;20439;-67
2021/05/25 03:45:49;;;;;;;4.43;1.43;;;8.60;99.90;;;;;;5070126;28;20447;-68
2021/05/25 03:48:17;;;;;;;5.07;1.23;;;8.50;99.90;;;;;;5069923;28;20453;-68
2021/05/25 03:50:43;;;;;;;2.23;0.90;;;8.50;99.90;;;;;;5069492;28;20475;-69
2021/05/25 03:53:11;;;;;;;4.90;1.57;;;8.50;99.90;;;;;;5070108;28;20869;-68
2021/05/25 03:55:45;;;;;;;4.10;0.90;;;8.50;99.90;;;;;;5070151;28;20530;-69
2021/05/25 04:00:56;;;;;;;5.40;1.00;;;8.60;99.90;;;;;;5069787;28;20469;-68
2021/05/25 04:03:23;;;;;;;2.97;0.93;;;8.70;99.90;;;;;;5070279;28;20530;-68
2021/05/25 04:05:49;;;;;;;3.00;1.00;;;8.70;99.90;;;;;;5069849;28;20507;-68
2021/05/25 04:08:17;;;;;;;4.67;1.07;;;8.80;99.90;;;;;;5072473;28;20447;-69
2021/05/25 04:10:44;;;;;;;7.33;1.40;;;8.90;99.90;;;;;;5072963;28;20557;-68
2021/05/25 04:13:11;;;;;;;3.17;1.40;;;9.00;99.90;;;;;;5073419;28;20486;-69
2021/05/25 04:15:38;;;;;;;2.37;1.00;;;9.20;99.90;;;;;;5073424;28;20451;-68
2021/05/25 04:18:05;;;;;;;3.23;1.20;;;9.30;99.90;;;;;;5073451;28;20458;-69
2021/05/25 04:20:32;;;;;;;3.40;1.80;;;9.40;99.90;;;;;;5072713;28;20924;-68
2021/05/25 04:22:59;;;;;;;2.43;1.00;;;9.40;99.90;;;;;;5073446;28;20451;-68
2021/05/25 04:25:26;;;;;;;4.13;1.00;;;9.50;99.90;;;;;;5073454;28;20447;-68
2021/05/25 04:27:52;;;;;;;2.50;1.17;;;9.50;99.90;;;;;;5073713;28;20442;-68
2021/05/25 04:30:20;;;;;;;6.00;1.47;;;9.60;99.90;;;;;;5072729;28;20504;-69
2021/05/25 04:32:47;;;;;;;1.80;1.00;;;9.50;99.90;;;;;;5073068;28;20447;-68
2021/05/25 04:35:14;;;;;;;2.90;1.23;;;9.60;99.90;;;;;;5073180;28;21013;-68
2021/05/25 04:37:40;;;;;;;3.93;1.00;;;9.60;99.90;;;;;;5073329;28;20449;-69
2021/05/25 04:43:06;;;;;;;3.13;0.90;;;9.70;99.90;;;;;;5066135;28;20431;-69
2021/05/25 04:45:32;;;;;;;3.10;1.27;;;9.80;99.90;;;;;;5073545;28;20481;-69
2021/05/25 04:47:59;;;;;;;1.67;0.70;;;9.90;99.90;;;;;;5072939;28;20443;-69
2021/05/25 04:50:25;;;;;;;2.17;0.90;;;9.90;99.90;;;;;;5072405;28;20463;-69
2021/05/25 04:52:52;;;;;;;2.03;1.00;;;9.90;99.90;;;;;;5072145;28;20447;-69
2021/05/25 04:55:21;;;;;;;2.70;1.00;;;10.00;99.90;;;;;;5070706;28;20504;-69
2021/05/25 04:57:47;;;;;;;1.77;1.30;;;10.10;99.90;;;;;;5069773;28;20457;-68
2021/05/25 05:00:16;;;;;;;3.60;0.83;;;10.40;99.90;;;;;;5071576;28;20534;-69
2021/05/25 05:02:42;;;;;;;4.80;0.93;;;10.50;99.90;;;;;;5071821;28;20442;-69
2021/05/25 05:05:11;;;;;;;1.90;1.00;;;10.50;99.90;;;;;;5072136;28;21291;-69
2021/05/25 05:07:37;;;;;;;2.33;0.77;;;10.50;99.90;;;;;;5071707;28;20530;-68
2021/05/25 05:10:05;;;;;;;1.90;0.70;;;10.40;99.90;;;;;;5071406;28;20494;-68
2021/05/25 05:12:32;;;;;;;2.00;0.80;;;10.40;99.90;;;;;;5069584;28;20455;-68
2021/05/25 05:14:58;;;;;;;1.77;0.80;;;10.40;99.90;;;;;;5071677;28;20474;-67
2021/05/25 05:17:27;;;;;;;2.60;0.77;;;10.30;99.90;;;;;;5071543;28;20447;-70
2021/05/25 05:19:55;;;;;;;3.67;1.10;;;10.10;99.90;;;;;;5071233;28;21259;-69
2021/05/25 05:22:21;;;;;;;1.40;0.63;;;10.00;99.90;;;;;;5071626;28;20466;-68
2021/05/25 05:24:48;;;;;;;2.13;0.97;;;10.00;99.90;;;;;;5072257;28;20439;-68
2021/05/25 05:27:15;;;;;;;1.80;0.80;;;10.20;99.90;;;;;;5072390;28;20501;-67
2021/05/25 05:29:41;;;;;;;1.70;0.80;;;10.20;99.90;;;;;;5071764;28;20543;-68
2021/05/25 05:32:08;;;;;;;1.40;0.63;;;10.20;99.90;;;;;;5069999;28;21006;-69
2021/05/25 05:34:35;;;;;;;1.97;0.83;;;10.30;99.90;;;;;;5067907;28;20832;-68
2021/05/25 05:37:02;;;;;;;1.50;0.60;;;10.50;99.90;;;;;;5069691;28;20454;-68
2021/05/25 05:39:29;;;;;;;2.60;0.80;;;10.70;99.90;;;;;;5071192;28;20446;-68
2021/05/25 05:42:03;;;;;;;2.37;1.10;;;10.90;99.90;;;;;;5067546;28;20457;-69
2021/05/25 05:44:29;;;;;;;1.30;0.50;;;11.00;99.90;;;;;;5067658;28;20451;-69
2021/05/25 05:46:55;;;;;;;1.67;0.60;;;11.00;99.90;;;;;;5067840;28;20482;-68
2021/05/25 05:49:23;;;;;;;1.90;1.00;;;11.00;99.90;;;;;;5064162;28;20452;-69
2021/05/25 05:51:50;;;;;;;1.70;0.70;;;11.10;99.90;;;;;;5064551;28;20486;-67
2021/05/25 05:54:17;;;;;;;2.73;0.80;;;11.10;99.90;;;;;;5068837;28;20489;-68
2021/05/25 05:56:43;;;;;;;1.80;0.70;;;11.10;99.90;;;;;;5065074;28;20542;-69
2021/05/25 05:59:10;;;;;;;1.50;0.70;;;11.30;99.90;;;;;;5065939;28;20505;-69
2021/05/25 06:01:36;;;;;;;2.27;0.60;;;11.40;99.90;;;;;;5071006;28;20469;-69
2021/05/25 06:04:03;;;;;;;2.53;0.70;;;11.50;99.90;;;;;;5070791;28;20435;-68
2021/05/25 06:06:29;;;;;;;2.27;0.80;;;11.60;99.90;;;;;;5065496;28;20513;-69
2021/05/25 06:08:56;;;;;;;2.10;0.70;;;11.60;99.90;;;;;;5065974;28;20439;-68
2021/05/25 06:11:23;;;;;;;4.43;0.90;;;11.70;99.90;;;;;;5063154;28;20554;-69
2021/05/25 06:13:49;;;;;;;2.10;0.77;;;11.70;99.90;;;;;;5070802;28;20483;-70
2021/05/25 06:16:15;;;;;;;2.80;1.10;;;11.40;99.90;;;;;;5066869;28;20462;-69
2021/05/25 06:18:42;;;;;;;1.50;0.70;;;11.40;99.90;;;;;;5058409;28;20538;-64
2021/05/25 06:21:08;;;;;;;2.03;0.77;;;11.50;99.90;;;;;;5065056;28;20466;-65
2021/05/25 06:23:35;;;;;;;1.80;0.70;;;11.70;99.90;;;;;;5068744;28;20542;-64
2021/05/25 06:26:03;;;;;;;2.27;0.60;;;11.70;99.90;;;;;;5067540;28;20475;-64
2021/05/25 06:28:31;;;;;;;2.43;0.90;;;11.70;99.90;;;;;;5067599;28;20453;-66
2021/05/25 06:30:58;;;;;;;2.13;0.70;;;11.80;99.90;;;;;;5062845;28;20851;-63
2021/05/25 06:33:25;;;;;;;2.30;1.00;;;12.00;99.90;;;;;;5070246;28;20609;-65
2021/05/25 06:35:51;;;;;;;3.10;1.07;;;12.10;99.90;;;;;;5069622;28;21264;-64
2021/05/25 06:38:18;;;;;;;2.60;0.80;;;12.10;99.90;;;;;;5063841;28;20542;-65
2021/05/25 06:40:45;;;;;;;2.90;0.93;;;12.10;99.90;;;;;;5065036;28;20479;-64
2021/05/25 06:43:12;;;;;;;2.33;0.70;;;12.10;99.90;;;;;;5065314;28;20453;-64
2021/05/25 06:45:40;;;;;;;2.53;0.67;;;12.10;99.90;;;;;;5069356;28;21042;-65
2021/05/25 06:48:06;;;;;;;2.37;0.80;;;12.10;99.90;;;;;;5068518;28;20526;-65
2021/05/25 06:50:33;;;;;;;1.90;0.80;;;12.00;99.90;;;;;;5066936;28;20462;-65
2021/05/25 06:53:00;;;;;;;2.83;0.90;;;12.00;99.90;;;;;;5070035;28;20534;-65
2021/05/25 06:55:26;;;;;;;3.50;0.97;;;11.90;99.90;;;;;;5069210;28;20535;-64
2021/05/25 06:57:52;;;;;;;3.20;1.03;;;11.90;99.90;;;;;;5068545;28;20477;-65
2021/05/25 07:00:21;;;;;;;4.83;1.00;;;12.00;99.90;;;;;;5069606;28;20455;-65
2021/05/25 07:02:48;;;;;;;3.47;0.67;;;12.20;99.90;;;;;;5069901;28;20446;-64
2021/05/25 07:05:15;;;;;;;3.30;0.90;;;12.40;99.90;;;;;;5069900;28;20511;-64
2021/05/25 07:07:41;;;;;;;4.80;1.17;;;12.50;99.90;;;;;;5070042;28;20445;-65
2021/05/25 07:10:09;;;;;;;2.17;0.90;;;12.50;99.90;;;;;;5069558;28;20491;-64
2021/05/25 07:12:35;;;;;;;2.60;1.00;;;12.40;99.90;;;;;;5069638;28;20443;-65
2021/05/25 07:15:02;;;;;;;2.20;1.10;;;12.30;99.90;;;;;;5070236;28;20570;-64
2021/05/25 07:17:29;;;;;;;2.07;1.00;;;12.30;99.90;;;;;;5069999;28;20443;-64
2021/05/25 07:19:56;;;;;;;1.73;0.90;;;12.50;99.90;;;;;;5069521;28;20520;-64
2021/05/25 07:22:22;;;;;;;3.67;0.80;;;12.50;99.90;;;;;;5070149;28;20549;-64
2021/05/25 07:24:49;;;;;;;1.90;0.73;;;12.60;99.90;;;;;;5071432;28;20482;-64
2021/05/25 07:27:16;;;;;;;1.93;1.33;;;12.80;99.90;;;;;;5069582;28;20458;-65
2021/05/25 07:29:42;;;;;;;2.17;0.70;;;12.80;99.90;;;;;;5069365;28;20502;-64
2021/05/25 07:32:09;;;;;;;2.07;0.80;;;13.00;99.90;;;;;;5070013;28;20481;-64
2021/05/25 07:34:36;;;;;;;2.73;0.80;;;13.20;99.90;;;;;;5069901;28;20479;-65
2021/05/25 07:37:02;;;;;;;3.80;0.80;;;13.40;99.90;;;;;;5070009;28;20447;-65
2021/05/25 07:39:29;;;;;;;2.27;0.90;;;13.50;99.90;;;;;;5069547;28;20959;-65
2021/05/25 07:41:55;;;;;;;2.40;0.80;;;13.30;99.90;;;;;;5071890;28;20537;-65
2021/05/25 07:44:21;;;;;;;3.00;0.77;;;13.10;99.90;;;;;;5073785;28;20959;-64
2021/05/25 07:46:48;;;;;;;2.83;0.90;;;13.20;99.90;;;;;;5073922;28;20883;-64
2021/05/25 07:49:14;;;;;;;3.67;0.87;;;13.20;99.90;;;;;;5073397;28;20494;-64
2021/05/25 07:51:43;;;;;;;1.97;0.70;;;13.30;99.90;;;;;;5073442;28;20691;-64
2021/05/25 07:54:09;;;;;;;2.00;0.73;;;13.30;99.50;;;;;;5073264;28;20475;-65
2021/05/25 07:56:35;;;;;;;1.67;0.53;;;13.30;99.80;;;;;;5073477;28;20455;-64
2021/05/25 07:59:02;;;;;;;2.60;0.80;;;13.30;98.30;;;;;;5073741;28;20443;-65
2021/05/25 08:01:28;;;;;;;2.22;0.88;;;13.00;98.50;;;;;;5073363;28;20446;-65
2021/05/25 08:03:55;;;;;;;3.53;0.80;;;12.90;99.10;;;;;;5073881;28;20211;-64
2021/05/25 08:06:21;;;;;;;1.93;0.80;;;12.60;99.00;;;;;;5073818;28;20528;-64
2021/05/25 08:08:48;;;;;;;2.10;0.80;;;12.50;99.60;;;;;;5073380;28;20443;-65
2021/05/25 08:11:15;;;;;;;2.13;0.67;;;12.40;99.90;;;;;;5073381;28;20473;-64
2021/05/25 08:13:44;;;;;;;1.47;0.60;;;12.30;99.90;;;;;;5073559;28;20491;-64
2021/05/25 08:16:13;;;;;;;2.47;0.80;;;12.30;99.90;;;;;;5073606;28;20443;-64
2021/05/25 08:18:53;;;;;;;2.30;0.60;;;12.50;99.90;;;;;;5073475;28;20849;-64
2021/05/25 08:21:20;;;;;;;2.43;0.83;;;12.70;99.90;;;;;;5072912;28;20477;-63
2021/05/25 08:23:46;;;;;;;2.17;0.70;;;12.90;99.90;;;;;;5073260;28;20447;-65
2021/05/25 08:26:13;;;;;;;1.90;0.80;;;13.20;99.60;;;;;;5073326;28;20481;-65
2021/05/25 08:28:40;;;;;;;1.73;0.73;;;13.20;99.30;;;;;;5073643;28;20500;-65
2021/05/25 08:31:06;;;;;;;2.20;0.97;;;13.30;98.90;;;;;;5072835;28;20473;-64
2021/05/25 08:33:33;;;;;;;1.87;0.73;;;13.30;98.90;;;;;;5072955;28;20533;-64
2021/05/25 08:36:00;;;;;;;2.23;0.70;;;13.70;99.30;;;;;;5073089;28;20443;-65
2021/05/25 08:38:26;;;;;;;2.30;0.70;;;14.00;98.50;;;;;;5073050;28;20450;-64
2021/05/25 08:40:55;;;;;;;2.33;0.80;;;14.20;97.20;;;;;;5073220;28;20466;-63
2021/05/25 08:43:23;;;;;;;3.10;1.03;;;13.90;96.70;;;;;;5073207;28;20443;-64
2021/05/25 08:45:50;;;;;;;9.10;1.73;;;13.70;97.90;;;;;;5072883;28;20940;-64
2021/05/25 08:48:16;;;;;;;2.47;0.80;;;13.60;97.00;;;;;;5072872;28;20549;-64
2021/05/25 08:50:42;;;;;;;2.00;0.70;;;13.50;97.10;;;;;;5073111;28;20597;-65
2021/05/25 08:53:09;;;;;;;2.90;0.70;;;13.60;97.20;;;;;;5072054;28;20443;-65
2021/05/25 08:55:37;;;;;;;2.63;0.83;;;13.70;97.50;;;;;;5073125;28;20881;-64
2021/05/25 08:58:05;;;;;;;3.23;0.90;;;13.60;96.80;;;;;;5072791;28;20486;-66
2021/05/25 09:00:33;;;;;;;2.83;1.00;;;13.40;96.60;;;;;;5072375;28;20471;-66
2021/05/25 09:02:59;;;;;;;2.17;0.80;;;13.40;96.90;;;;;;5072509;28;20996;-65
2021/05/25 09:05:27;;;;;;;5.63;1.00;;;13.50;96.90;;;;;;5072801;28;20443;-65
2021/05/25 09:07:55;;;;;;;3.60;0.90;;;13.50;97.00;;;;;;5072611;28;20453;-64
2021/05/25 09:10:23;;;;;;;2.17;0.60;;;13.20;97.10;;;;;;5072042;28;20467;-65
2021/05/25 09:12:51;;;;;;;3.83;1.00;;;13.20;97.20;;;;;;5072380;28;20455;-65
2021/05/25 09:15:30;;;;;;;2.13;1.10;;;13.10;97.50;;;;;;5072261;28;20574;-65
2021/05/25 09:18:03;;;;;;;1.70;0.70;;;13.00;98.20;;;;;;5072198;28;20451;-66
2021/05/25 09:20:42;;;;;;;1.77;0.70;;;13.10;98.80;;;;;;5071977;28;20467;-65
2021/05/25 09:23:08;;;;;;;1.80;0.70;;;13.20;98.50;;;;;;5071998;28;20459;-65
2021/05/25 09:25:35;;;;;;;6.30;0.87;;;13.10;98.40;;;;;;5072261;28;20451;-65
2021/05/25 09:28:07;;;;;;;4.20;0.97;;;13.10;98.00;;;;;;5072082;28;20447;-65
2021/05/25 09:30:34;;;;;;;2.43;0.80;;;13.00;98.40;;;;;;5072368;28;20474;-66
2021/05/25 09:33:03;;;;;;;5.53;0.80;;;13.00;98.80;;;;;;5072390;28;20542;-65
2021/05/25 09:35:31;;;;;;;2.00;0.80;;;13.00;99.10;;;;;;5072333;28;20987;-65
2021/05/25 09:38:00;;;;;;;3.83;0.70;;;13.00;98.60;;;;;;5072116;28;20439;-66
2021/05/25 09:40:28;;;;;;;2.47;0.80;;;13.10;98.50;;;;;;5071594;28;20459;-66
2021/05/25 09:43:13;;;;;;;2.33;0.90;;;13.20;98.50;;;;;;5072217;28;20824;-64
2021/05/25 09:45:58;;;;;;;3.40;1.03;;;13.20;98.50;;;;;;5071942;28;20869;-65
2021/05/25 09:48:26;;;;;;;2.23;0.87;;;13.40;98.50;;;;;;5072068;28;20438;-65
2021/05/25 09:50:54;;;;;;;2.20;0.70;;;13.40;97.80;;;;;;5071129;28;20813;-65
2021/05/25 09:53:21;;;;;;;1.50;0.70;;;13.90;97.90;;;;;;5071499;28;20479;-65
2021/05/25 09:55:50;;;;;;;3.50;1.00;;;14.20;97.30;;;;;;5071667;28;20530;-66
2021/05/25 09:58:17;;;;;;;2.93;0.90;;;14.20;97.30;;;;;;5071977;28;20447;-65
2021/05/25 10:00:46;;;;;;;5.33;1.53;;;13.70;97.70;;;;;;5071582;28;20494;-66
2021/05/25 10:03:17;;;;;;;2.03;0.87;;;14.40;98.10;;;;;;5071795;28;20450;-66
2021/05/25 10:05:47;;;;;;;2.30;0.97;;;15.20;96.50;;;;;;5071914;28;20486;-65
2021/05/25 10:08:14;;;;;;;2.83;0.80;;;15.70;95.20;;;;;;5072301;28;20451;-65
2021/05/25 10:10:42;;;;;;;8.17;1.30;;;15.90;93.40;;;;;;5072162;28;20467;-66
2021/05/25 10:13:09;;;;;;;4.57;0.90;;;15.10;95.10;;;;;;5072485;28;20488;-64
2021/05/25 10:15:36;;;;;;;3.10;0.73;;;14.80;96.10;;;;;;5071104;28;20442;-65
2021/05/25 10:18:17;;;;;;;3.10;1.00;;;14.70;95.70;;;;;;5072006;28;20454;-65
2021/05/25 10:20:45;;;;;;;4.03;0.80;;;14.70;95.40;;;;;;5071546;28;20467;-65
2021/05/25 10:23:13;;;;;;;2.57;1.20;;;14.90;95.10;;;;;;5072486;28;20817;-68
2021/05/25 10:25:41;;;;;;;2.47;0.90;;;14.90;94.40;;;;;;5071615;28;20546;-65
2021/05/25 10:28:12;;;;;;;4.93;0.80;;;15.00;94.80;;;;;;5070821;28;20447;-65
2021/05/25 10:30:45;;;;;;;2.30;0.90;;;15.40;94.30;;;;;;5070254;28;20524;-65
2021/05/25 10:33:31;;;;;;;2.17;0.77;;;15.10;92.50;;;;;;5070617;28;20458;-65
2021/05/25 10:36:09;;;;;;;3.27;0.80;;;14.70;94.00;;;;;;5070974;28;20443;-64
2021/05/25 10:38:54;;;;;;;2.90;0.80;;;14.20;94.00;;;;;;5069725;28;20454;-65
2021/05/25 10:41:27;;;;;;;2.57;0.83;;;13.80;96.20;;;;;;5070143;28;20517;-65
2021/05/25 10:43:55;;;;;;;1.73;1.00;;;13.10;98.50;;;;;;5070279;28;20446;-65
2021/05/25 10:46:30;;;;;;;3.20;1.30;;;12.80;99.90;;;;;;5069941;28;20447;-66
2021/05/25 10:49:15;;;;;;;2.77;0.90;;;13.00;99.90;;;;;;5069438;28;20438;-65
2021/05/25 10:52:14;;;;;;;4.00;1.07;;;13.20;99.90;;;;;;5069863;28;20459;-65
2021/05/25 10:54:45;;;;;;;5.13;0.90;;;13.40;99.90;;;;;;5070067;28;20489;-66
2021/05/25 10:57:46;;;;;;;2.30;0.80;;;13.20;99.90;;;;;;5069764;28;20448;-65
2021/05/25 11:00:15;;;;;;;3.00;0.90;;;12.80;99.90;;;;;;5069596;28;20780;-66
2021/05/25 11:02:47;;;;;;;7.70;1.10;;;13.10;99.90;;;;;;5069907;28;20534;-66
2021/05/25 11:05:54;;;;;;;6.30;1.90;;;13.90;99.90;;;;;;5069639;28;20439;-65
2021/05/25 11:08:39;;;;;;;2.90;0.97;;;14.90;99.90;;;;;;5070184;28;20497;-65
2021/05/25 11:11:08;;;;;;;3.13;0.80;;;15.10;99.80;;;;;;5069433;28;20559;-64
2021/05/25 11:13:45;;;;;;;2.43;0.80;;;15.20;98.70;;;;;;5069443;28;20489;-65
2021/05/25 11:16:13;;;;;;;4.10;1.10;;;15.50;98.10;;;;;;5069383;28;20450;-65
2021/05/25 11:18:44;;;;;;;1.90;0.80;;;15.50;97.30;;;;;;5069705;28;20449;-65
2021/05/25 11:21:45;;;;;;;2.53;0.70;;;15.00;96.70;;;;;;5069318;28;20470;-65
2021/05/25 11:24:30;;;;;;;5.83;1.10;;;14.30;99.20;;;;;;5069996;28;20439;-65
2021/05/25 11:26:59;;;;;;;2.93;1.30;;;12.60;99.90;;;;;;5069709;28;20447;-65
2021/05/25 11:29:28;;;;;;;1.73;0.90;;;11.40;99.90;;;;;;5069401;28;20948;-65
2021/05/25 11:31:58;;;;;;;1.80;0.90;;;11.10;99.90;;;;;;5069722;28;20479;-65
2021/05/25 11:34:25;;;;;;;2.07;1.00;;;11.70;99.90;;;;;;5069423;28;20482;-65
2021/05/25 11:37:01;;;;;;;3.97;1.00;;;12.30;99.90;;;;;;5070057;28;20439;-65
2021/05/25 11:39:30;;;;;;;2.60;1.07;;;12.90;99.90;;;;;;5069443;28;20475;-65
2021/05/25 11:41:57;;;;;;;1.70;0.70;;;13.60;99.90;;;;;;5069596;28;20508;-65
2021/05/25 11:44:31;;;;;;;3.67;1.10;;;14.10;99.90;;;;;;5069769;28;20505;-65
2021/05/25 11:46:58;;;;;;;1.93;0.80;;;14.40;99.90;;;;;;5069656;28;20447;-65
2021/05/25 11:49:26;;;;;;;2.43;0.93;;;14.70;99.90;;;;;;5069584;28;20443;-64
2021/05/25 11:51:53;;;;;;;2.23;1.00;;;15.00;99.90;;;;;;5069996;28;20560;-65
2021/05/25 11:54:21;;;;;;;2.17;0.90;;;15.80;99.90;;;;;;5069823;28;20889;-65
2021/05/25 11:56:50;;;;;;;1.60;0.80;;;15.80;99.90;;;;;;5069760;28;20450;-65
2021/05/25 11:59:19;;;;;;;4.00;1.00;;;16.00;99.90;;;;;;5069216;28;20494;-65
2021/05/25 12:01:49;;;;;;;3.53;1.03;;;16.20;99.50;;;;;;5069540;28;20475;-64
2021/05/25 12:04:16;;;;;;;4.27;1.10;;;16.50;98.10;;;;;;5069718;28;20439;-65
2021/05/25 12:06:53;;;;;;;2.53;1.00;;;16.60;96.90;;;;;;5069644;28;20512;-66
2021/05/25 12:09:25;;;;;;;3.33;1.00;;;16.90;96.30;;;;;;5069128;28;20874;-65
2021/05/25 12:11:57;;;;;;;2.43;0.90;;;16.70;93.20;;;;;;5069093;28;20520;-65
2021/05/25 12:14:28;;;;;;;3.40;1.30;;;16.70;93.90;;;;;;5069589;28;20482;-64
2021/05/25 12:16:57;;;;;;;2.17;0.87;;;16.70;92.10;;;;;;5069341;28;20447;-65
2021/05/25 12:19:23;;;;;;;2.30;1.00;;;16.70;92.20;;;;;;5068987;28;20493;-65
2021/05/25 12:21:50;;;;;;;4.10;1.27;;;16.20;91.80;;;;;;5069317;28;20485;-64
2021/05/25 12:24:27;;;;;;;4.63;1.00;;;15.70;92.50;;;;;;5069307;28;20450;-65
2021/05/25 12:26:55;;;;;;;3.13;1.00;;;15.70;93.50;;;;;;5069406;28;20438;-65
2021/05/25 12:29:22;;;;;;;3.83;1.03;;;16.40;92.20;;;;;;5071671;28;20453;-65
2021/05/25 12:31:49;;;;;;;3.50;1.10;;;17.00;92.10;;;;;;5072871;28;20458;-64
2021/05/25 12:34:21;;;;;;;3.40;1.10;;;17.40;91.50;;;;;;5072713;28;20489;-65
2021/05/25 12:36:55;;;;;;;2.80;1.00;;;17.10;90.10;;;;;;5072637;28;20494;-65
2021/05/25 12:39:33;;;;;;;2.00;0.80;;;16.40;90.10;;;;;;5072686;28;20446;-64
2021/05/25 12:42:01;;;;;;;3.23;1.10;;;15.80;90.20;;;;;;5072917;28;20454;-66
2021/05/25 12:44:32;;;;;;;2.77;0.90;;;15.50;92.10;;;;;;5072375;28;20842;-65
2021/05/25 12:47:00;;;;;;;4.00;0.90;;;15.50;91.30;;;;;;5072623;28;20447;-65
2021/05/25 12:49:31;;;;;;;3.43;1.30;;;15.50;92.30;;;;;;5072243;28;20447;-65
2021/05/25 12:52:19;;;;;;;3.20;1.00;;;16.30;91.50;;;;;;5072461;28;21082;-65
2021/05/25 12:54:57;;;;;;;2.27;0.70;;;16.70;91.40;;;;;;5066055;28;20493;-65
2021/05/25 12:57:40;;;;;;;3.40;0.80;;;16.90;88.60;;;;;;5072436;28;20528;-65
2021/05/25 13:00:08;;;;;;;1.67;0.90;;;17.30;89.50;;;;;;5071898;28;20463;-65
2021/05/25 13:02:42;;;;;;;2.27;0.80;;;18.10;87.10;;;;;;5072322;28;20453;-65
2021/05/25 13:05:10;;;;;;;3.27;0.87;;;18.00;84.70;;;;;;5072389;28;20446;-65